createdAt,value
2022-10-03T00:02:46.044Z,7.03
2022-10-03T00:05:39.741Z,10.15
2022-10-03T00:08:52.668Z,7.95
2022-10-03T00:25:32.053Z,14.43
2022-10-03T00:28:34.775Z,11.45
2022-10-03T00:31:10.839Z,7.55
2022-10-03T00:34:02.248Z,14.25
2022-10-03T00:37:07.073Z,8.77
2022-10-03T00:39:40.150Z,9.88
2022-10-03T00:55:34.938Z,9.77
2022-10-03T00:58:20.215Z,11.95
2022-10-03T01:00:51.430Z,11.77
2022-10-03T01:03:28.171Z,8.65
2022-10-03T01:06:08.798Z,11.52
2022-10-03T01:09:09.841Z,11.85
2022-10-03T01:17:40.179Z,8.63
2022-10-03T01:20:15.510Z,10.40
2022-10-03T01:22:42.452Z,15.57
2022-10-03T01:25:35.274Z,16.60
2022-10-03T01:28:38.947Z,10.98
2022-10-03T01:31:10.828Z,15.05
2022-10-03T01:38:32.964Z,15.82
2022-10-03T01:41:33.261Z,6.05
2022-10-03T01:44:12.849Z,10.23
2022-10-03T01:46:53.197Z,6.65
2022-10-03T01:49:36.361Z,7.45
2022-10-03T01:52:51.214Z,12.80
2022-10-03T02:00:19.690Z,10.63
2022-10-03T02:02:49.629Z,15.98
2022-10-03T02:05:37.771Z,9.52
2022-10-03T02:08:24.191Z,12.15
2022-10-03T02:11:01.857Z,15.18
2022-10-03T02:14:11.673Z,11.35
2022-10-03T02:32:54.466Z,19.75
2022-10-03T02:35:35.577Z,14.65
2022-10-03T02:38:11.550Z,15.13
2022-10-03T02:40:41.289Z,11.32
2022-10-03T02:43:24.345Z,11.73
2022-10-03T02:46:03.443Z,8.27
2022-10-03T02:54:44.043Z,14.73
2022-10-03T02:57:35.186Z,12.13
2022-10-03T03:00:10.220Z,5.70
2022-10-03T03:02:40.188Z,14.10
2022-10-03T03:05:43.767Z,8.95
2022-10-03T03:08:33.123Z,9.70
2022-10-03T03:17:35.689Z,14.50
2022-10-03T03:20:11.841Z,11.35
2022-10-03T03:22:58.185Z,22.42
2022-10-03T03:25:50.750Z,19.25
2022-10-03T03:28:32.910Z,10.40
2022-10-03T03:31:16.000Z,12.75
2022-10-03T03:39:29.089Z,10.23
2022-10-03T03:42:05.380Z,9.82
2022-10-03T03:45:09.225Z,12.07
2022-10-03T03:48:14.865Z,10.00
2022-10-03T03:51:21.941Z,16.40
2022-10-03T03:54:29.847Z,14.32
2022-10-03T04:24:13.208Z,15.70
2022-10-03T04:27:16.242Z,10.85
2022-10-03T04:30:01.854Z,13.90
2022-10-03T04:33:06.632Z,15.88
2022-10-03T04:36:11.511Z,8.90
2022-10-03T04:38:57.166Z,13.40
2022-10-03T04:46:58.436Z,22.20
2022-10-03T04:49:44.197Z,11.30
2022-10-03T04:52:48.876Z,13.48
2022-10-03T04:55:29.813Z,12.10
2022-10-03T04:58:25.330Z,15.90
2022-10-03T05:01:24.786Z,13.45
2022-10-03T05:10:07.245Z,13.20
2022-10-03T05:13:01.775Z,15.48
2022-10-03T05:15:41.702Z,11.75
2022-10-03T05:18:28.428Z,11.25
2022-10-03T05:21:16.010Z,20.40
2022-10-03T05:24:02.777Z,18.35
2022-10-03T05:32:43.906Z,11.73
2022-10-03T05:35:40.034Z,15.07
2022-10-03T05:38:15.554Z,18.05
2022-10-03T05:41:07.329Z,16.80
2022-10-03T05:43:42.876Z,8.55
2022-10-03T05:46:57.433Z,10.20
2022-10-03T05:54:54.733Z,11.18
2022-10-03T05:57:49.756Z,12.55
2022-10-03T06:00:24.893Z,12.02
2022-10-03T06:03:16.851Z,12.90
2022-10-03T06:06:24.351Z,17.17
2022-10-03T06:08:53.142Z,14.55
2022-10-03T06:17:11.869Z,17.17
2022-10-03T06:19:55.401Z,15.05
2022-10-03T06:22:46.969Z,21.00
2022-10-03T06:25:26.124Z,12.95
2022-10-03T06:28:12.970Z,25.48
2022-10-03T06:31:29.693Z,23.52
2022-10-03T06:39:27.842Z,20.48
2022-10-03T06:42:09.640Z,21.27
2022-10-03T06:45:10.671Z,18.80
2022-10-03T06:47:59.039Z,16.58
2022-10-03T06:50:46.670Z,14.50
2022-10-03T06:53:43.787Z,11.88
2022-10-03T07:01:04.817Z,10.20
2022-10-03T07:03:50.342Z,10.20
2022-10-03T07:06:23.364Z,11.15
2022-10-03T07:09:27.890Z,16.42
2022-10-03T07:12:16.498Z,17.10
2022-10-03T07:15:17.279Z,13.40
2022-10-03T07:23:14.318Z,18.20
2022-10-03T07:26:30.225Z,14.05
2022-10-03T07:29:14.926Z,16.85
2022-10-03T07:32:10.916Z,11.23
2022-10-03T07:35:15.468Z,11.85
2022-10-03T07:38:18.473Z,29.67
2022-10-03T07:44:17.997Z,11.65
2022-10-03T07:47:09.263Z,17.02
2022-10-03T07:49:48.597Z,13.68
2022-10-03T07:52:33.879Z,12.52
2022-10-03T07:55:42.184Z,19.55
2022-10-03T07:58:27.724Z,12.38
2022-10-03T08:06:16.720Z,10.65
2022-10-03T08:09:04.476Z,12.57
2022-10-03T08:12:03.557Z,19.27
2022-10-03T08:14:57.524Z,17.08
2022-10-03T08:17:43.547Z,11.57
2022-10-03T08:20:31.599Z,14.15
2022-10-03T08:26:43.291Z,7.70
2022-10-03T08:29:28.908Z,10.63
2022-10-03T08:31:59.195Z,9.48
2022-10-03T08:34:45.307Z,10.32
2022-10-03T08:37:30.914Z,10.27
2022-10-03T08:40:35.281Z,13.70
2022-10-03T08:49:21.742Z,9.00
2022-10-03T08:51:54.949Z,12.40
2022-10-03T08:54:52.427Z,13.10
2022-10-03T08:57:33.990Z,8.52
2022-10-03T09:00:36.905Z,11.85
2022-10-03T09:03:38.118Z,10.95
2022-10-03T09:11:34.186Z,9.93
2022-10-03T09:14:19.003Z,10.57
2022-10-03T09:17:05.927Z,11.35
2022-10-03T09:20:07.178Z,11.98
2022-10-03T09:22:52.374Z,11.85
2022-10-03T09:25:40.860Z,10.43
2022-10-03T09:34:00.701Z,11.05
2022-10-03T09:36:33.709Z,11.32
2022-10-03T09:39:12.736Z,10.82
2022-10-03T09:42:15.013Z,11.52
2022-10-03T09:45:29.970Z,11.93
2022-10-03T09:48:24.724Z,11.88
2022-10-03T09:56:20.737Z,10.65
2022-10-03T09:59:05.577Z,7.55
2022-10-03T10:01:45.863Z,9.25
2022-10-03T10:04:55.971Z,8.02
2022-10-03T10:07:32.373Z,7.18
2022-10-03T10:10:21.331Z,8.75
2022-10-03T10:16:09.274Z,7.40
2022-10-03T10:18:40.038Z,8.75
2022-10-03T10:21:35.109Z,6.38
2022-10-03T10:24:14.458Z,6.60
2022-10-03T10:27:20.087Z,9.10
2022-10-03T10:29:50.554Z,9.00
2022-10-03T10:37:24.781Z,7.88
2022-10-03T10:40:07.163Z,9.18
2022-10-03T10:43:19.036Z,8.38
2022-10-03T10:46:20.073Z,9.68
2022-10-03T10:49:12.492Z,4.40
2022-10-03T10:51:49.877Z,9.23
2022-10-03T10:58:20.661Z,7.40
2022-10-03T11:01:06.993Z,7.60
2022-10-03T11:04:11.888Z,6.85
2022-10-03T11:07:04.882Z,7.38
2022-10-03T11:09:53.812Z,7.30
2022-10-03T11:12:39.386Z,10.15
2022-10-03T11:18:45.646Z,6.22
2022-10-03T11:21:43.028Z,5.28
2022-10-03T11:24:21.876Z,6.97
2022-10-03T11:27:07.851Z,4.82
2022-10-03T11:30:07.562Z,9.18
2022-10-03T11:33:27.671Z,5.30
2022-10-03T11:39:22.055Z,5.38
2022-10-03T11:42:09.897Z,14.43
2022-10-03T11:44:48.936Z,6.60
2022-10-03T11:47:15.768Z,7.72
2022-10-03T11:50:00.732Z,9.38
2022-10-03T11:52:31.307Z,5.72
2022-10-03T12:00:38.982Z,9.90
2022-10-03T12:03:23.131Z,7.72
2022-10-03T12:06:13.937Z,6.60
2022-10-03T12:09:13.944Z,9.35
2022-10-03T12:11:57.652Z,7.63
2022-10-03T12:14:52.509Z,6.93
2022-10-03T12:21:56.587Z,6.63
2022-10-03T12:24:29.825Z,8.20
2022-10-03T12:27:06.065Z,8.00
2022-10-03T12:29:37.898Z,8.73
2022-10-03T12:32:19.375Z,5.32
2022-10-03T12:35:00.464Z,5.78
2022-10-03T12:37:55.466Z,6.53
2022-10-03T12:45:44.004Z,5.20
2022-10-03T12:48:48.691Z,4.05
2022-10-03T12:51:37.679Z,3.15
2022-10-03T12:54:18.266Z,8.32
2022-10-03T12:57:19.837Z,5.35
2022-10-03T13:00:05.650Z,4.47
2022-10-03T13:07:22.390Z,7.50
2022-10-03T13:12:35.706Z,10.15
2022-10-03T13:15:42.408Z,6.95
2022-10-03T13:18:18.610Z,6.05
2022-10-03T13:21:00.789Z,5.05
2022-10-03T13:27:00.855Z,7.15
2022-10-03T13:29:40.085Z,6.03
2022-10-03T13:32:10.354Z,7.05
2022-10-03T13:35:20.951Z,6.63
2022-10-03T13:38:07.206Z,6.75
2022-10-03T13:40:43.014Z,7.15
2022-10-03T13:48:20.467Z,7.25
2022-10-03T13:50:47.608Z,4.68
2022-10-03T13:53:44.694Z,7.30
2022-10-03T13:56:22.487Z,6.40
2022-10-03T13:59:01.927Z,7.15
2022-10-03T14:01:40.082Z,6.32
2022-10-03T14:09:35.128Z,7.22
2022-10-03T14:12:38.202Z,5.80
2022-10-03T14:15:21.923Z,9.55
2022-10-03T14:18:21.436Z,6.93
2022-10-03T14:21:31.890Z,7.00
2022-10-03T14:27:46.104Z,7.78
2022-10-03T14:30:22.405Z,5.95
2022-10-03T14:33:24.814Z,4.93
2022-10-03T14:36:10.355Z,5.63
2022-10-03T14:39:06.631Z,4.72
2022-10-03T14:41:33.451Z,8.88
2022-10-03T14:49:54.862Z,16.90
2022-10-03T14:52:33.900Z,6.32
2022-10-03T14:55:26.467Z,8.88
2022-10-03T14:58:10.756Z,6.05
2022-10-03T15:00:43.017Z,5.78
2022-10-03T15:03:28.696Z,5.93
2022-10-03T15:06:04.567Z,4.68
2022-10-03T15:12:37.991Z,6.55
2022-10-03T15:15:15.543Z,7.85
2022-10-03T15:17:53.019Z,7.15
2022-10-03T15:20:26.542Z,7.78
2022-10-03T15:22:57.969Z,9.35
2022-10-03T15:25:41.437Z,8.18
2022-10-03T15:31:15.835Z,8.00
2022-10-03T15:33:45.569Z,8.52
2022-10-03T15:36:19.372Z,9.15
2022-10-03T15:38:51.643Z,7.72
2022-10-03T15:41:47.886Z,7.75
2022-10-03T15:44:33.155Z,9.43
2022-10-03T16:02:52.305Z,8.27
2022-10-03T16:05:25.058Z,5.25
2022-10-03T16:08:10.249Z,6.35
2022-10-03T16:10:47.782Z,7.30
2022-10-03T16:13:44.025Z,10.93
2022-10-03T16:16:33.476Z,5.35
2022-10-03T16:24:16.019Z,8.68
2022-10-03T16:26:55.093Z,6.32
2022-10-03T16:29:32.968Z,8.35
2022-10-03T16:32:25.889Z,9.75
2022-10-03T16:34:58.916Z,9.43
2022-10-03T16:37:29.521Z,9.27
2022-10-03T16:56:57.415Z,9.05
2022-10-03T16:59:26.799Z,12.07
2022-10-03T17:02:13.934Z,10.13
2022-10-03T17:04:53.206Z,7.75
2022-10-03T17:07:29.214Z,6.63
2022-10-03T17:09:59.377Z,9.57
2022-10-03T17:15:34.031Z,8.00
2022-10-03T17:18:33.563Z,6.93
2022-10-03T17:21:14.855Z,9.55
2022-10-03T17:24:04.315Z,8.18
2022-10-03T17:26:44.456Z,10.60
2022-10-03T17:29:32.300Z,11.45
2022-10-03T17:37:16.726Z,12.70
2022-10-03T17:40:11.938Z,9.95
2022-10-03T17:42:48.250Z,11.40
2022-10-03T17:47:52.173Z,10.20
2022-10-03T17:50:29.132Z,9.90
2022-10-03T17:52:56.861Z,11.20
2022-10-03T18:10:36.715Z,24.70
2022-10-03T18:13:15.014Z,19.95
2022-10-03T18:16:36.588Z,17.98
2022-10-03T18:19:29.259Z,14.32
2022-10-03T18:22:07.930Z,19.35
2022-10-03T18:30:46.865Z,29.55
2022-10-03T18:33:19.429Z,14.60
2022-10-03T18:35:48.713Z,14.93
2022-10-03T18:38:26.931Z,17.05
2022-10-03T18:41:04.775Z,13.45
2022-10-03T18:43:44.847Z,21.30
2022-10-03T19:07:23.579Z,15.00
2022-10-03T19:10:22.813Z,21.58
2022-10-03T19:13:05.298Z,13.77
2022-10-03T19:15:49.302Z,13.50
2022-10-03T19:18:27.346Z,7.72
2022-10-03T19:20:59.459Z,14.52
2022-10-03T19:37:50.121Z,11.38
2022-10-03T19:40:32.125Z,12.15
2022-10-03T19:43:16.619Z,14.00
2022-10-03T19:45:50.355Z,12.27
2022-10-03T19:48:20.143Z,13.32
2022-10-03T19:50:47.403Z,17.98
2022-10-03T19:58:25.259Z,17.35
2022-10-03T20:00:57.818Z,18.55
2022-10-03T20:03:47.588Z,36.95
2022-10-03T20:06:22.536Z,24.20
2022-10-03T20:09:08.388Z,28.30
2022-10-03T20:11:54.590Z,31.30
2022-10-03T20:30:30.711Z,9.13
2022-10-03T20:33:00.265Z,15.93
2022-10-03T20:35:30.982Z,13.95
2022-10-03T20:38:21.562Z,14.82
2022-10-03T20:41:11.260Z,14.05
2022-10-03T20:43:43.839Z,12.73
2022-10-03T20:52:04.559Z,11.40
2022-10-03T20:55:14.126Z,12.27
2022-10-03T20:58:10.033Z,13.90
2022-10-03T21:00:47.428Z,8.95
2022-10-03T21:03:27.100Z,12.73
2022-10-03T21:05:57.674Z,12.00
2022-10-03T21:14:05.919Z,16.65
2022-10-03T21:16:44.732Z,9.95
2022-10-03T21:19:19.479Z,12.23
2022-10-03T21:21:59.061Z,17.58
2022-10-03T21:24:44.508Z,25.55
2022-10-03T21:27:14.723Z,17.08
2022-10-03T21:32:37.170Z,25.13
2022-10-03T21:35:28.080Z,19.55
2022-10-03T21:38:27.321Z,22.98
2022-10-03T21:41:13.748Z,22.88
2022-10-03T21:43:58.939Z,17.33
2022-10-03T21:46:37.727Z,21.58
2022-10-03T21:54:42.007Z,16.00
2022-10-03T21:57:27.389Z,19.35
2022-10-03T22:00:19.725Z,11.98
2022-10-03T22:03:17.020Z,19.13
2022-10-03T22:05:50.434Z,20.35
2022-10-03T22:08:31.683Z,17.08
2022-10-03T22:16:28.742Z,11.52
2022-10-03T22:19:24.924Z,15.52
2022-10-03T22:22:12.782Z,14.32
2022-10-03T22:24:48.264Z,11.27
2022-10-03T22:27:37.780Z,13.45
2022-10-03T22:30:15.118Z,10.85
2022-10-03T22:38:01.924Z,10.18
2022-10-03T22:40:30.690Z,14.88
2022-10-03T22:43:00.721Z,13.65
2022-10-03T22:45:31.561Z,14.68
2022-10-03T22:48:03.977Z,11.00
2022-10-03T22:50:34.719Z,9.70
2022-10-03T22:53:03.238Z,9.38
2022-10-03T23:00:10.391Z,8.02
2022-10-03T23:02:47.177Z,10.40
2022-10-03T23:05:30.761Z,12.63
2022-10-03T23:08:04.290Z,12.55
2022-10-03T23:11:00.633Z,8.30
2022-10-03T23:13:43.133Z,12.52
2022-10-03T23:16:16.411Z,9.63
2022-10-03T23:23:22.864Z,12.48
2022-10-03T23:26:08.503Z,8.13
2022-10-03T23:29:10.545Z,17.73
2022-10-03T23:32:03.253Z,18.65
2022-10-03T23:34:36.294Z,18.50
2022-10-03T23:37:14.887Z,16.60
2022-10-03T23:42:37.914Z,7.97
2022-10-03T23:45:09.578Z,11.48
2022-10-03T23:47:41.705Z,9.63
2022-10-03T23:50:16.573Z,6.55
2022-10-03T23:52:58.207Z,10.90
2022-10-03T23:55:29.620Z,11.50
